sensor_id;sensor_type;location;lat;lon;timestamp;P1;durP1;ratioP1;P2;durP2;ratioP2
10315;SDS011;5203;48.976;8.306;2023-03-01T00:01:24;17.67;;;10.83;;
10315;SDS011;5203;48.976;8.306;2023-03-01T00:03:52;10.10;;;9.03;;
10315;SDS011;5203;48.976;8.306;2023-03-01T00:06:19;12.47;;;11.17;;
10315;SDS011;5203;48.976;8.306;2023-03-01T00:08:45;13.77;;;11.57;;
10315;SDS011;5203;48.976;8.306;2023-03-01T00:11:22;11.77;;;10.27;;
10315;SDS011;5203;48.976;8.306;2023-03-01T00:13:50;11.57;;;10.37;;
10315;SDS011;5203;48.976;8.306;2023-03-01T00:16:22;10.60;;;9.43;;
10315;SDS011;5203;48.976;8.306;2023-03-01T00:18:49;10.87;;;9.77;;
10315;SDS011;5203;48.976;8.306;2023-03-01T00:21:15;13.20;;;10.53;;
10315;SDS011;5203;48.976;8.306;2023-03-01T00:23:41;11.57;;;10.13;;
10315;SDS011;5203;48.976;8.306;2023-03-01T00:26:08;13.57;;;10.13;;
10315;SDS011;5203;48.976;8.306;2023-03-01T00:28:37;10.57;;;9.57;;
10315;SDS011;5203;48.976;8.306;2023-03-01T00:31:06;10.97;;;9.87;;
10315;SDS011;5203;48.976;8.306;2023-03-01T00:33:38;9.93;;;8.93;;
10315;SDS011;5203;48.976;8.306;2023-03-01T00:36:03;14.30;;;9.17;;
10315;SDS011;5203;48.976;8.306;2023-03-01T00:38:29;10.53;;;9.43;;
10315;SDS011;5203;48.976;8.306;2023-03-01T00:41:02;10.20;;;9.20;;
10315;SDS011;5203;48.976;8.306;2023-03-01T00:43:32;12.40;;;10.23;;
10315;SDS011;5203;48.976;8.306;2023-03-01T00:46:04;9.90;;;8.90;;
10315;SDS011;5203;48.976;8.306;2023-03-01T00:48:32;10.10;;;9.10;;
10315;SDS011;5203;48.976;8.306;2023-03-01T00:51:03;10.33;;;9.23;;
10315;SDS011;5203;48.976;8.306;2023-03-01T00:53:30;11.53;;;9.33;;
10315;SDS011;5203;48.976;8.306;2023-03-01T00:55:56;11.77;;;9.97;;
10315;SDS011;5203;48.976;8.306;2023-03-01T00:58:23;12.30;;;9.97;;
10315;SDS011;5203;48.976;8.306;2023-03-01T01:00:48;12.23;;;10.10;;
10315;SDS011;5203;48.976;8.306;2023-03-01T01:03:14;12.50;;;10.03;;
10315;SDS011;5203;48.976;8.306;2023-03-01T01:05:40;11.43;;;10.17;;
10315;SDS011;5203;48.976;8.306;2023-03-01T01:08:05;12.33;;;9.93;;
10315;SDS011;5203;48.976;8.306;2023-03-01T01:10:33;11.37;;;10.03;;
10315;SDS011;5203;48.976;8.306;2023-03-01T01:12:59;11.33;;;10.10;;
10315;SDS011;5203;48.976;8.306;2023-03-01T01:15:25;11.13;;;9.93;;
10315;SDS011;5203;48.976;8.306;2023-03-01T01:17:51;9.90;;;8.90;;
10315;SDS011;5203;48.976;8.306;2023-03-01T01:20:16;11.50;;;10.03;;
10315;SDS011;5203;48.976;8.306;2023-03-01T01:22:42;11.80;;;10.23;;
10315;SDS011;5203;48.976;8.306;2023-03-01T01:25:08;11.00;;;9.90;;
10315;SDS011;5203;48.976;8.306;2023-03-01T01:27:34;11.20;;;9.77;;
10315;SDS011;5203;48.976;8.306;2023-03-01T01:30:00;12.23;;;10.40;;
10315;SDS011;5203;48.976;8.306;2023-03-01T01:32:26;10.87;;;9.77;;
10315;SDS011;5203;48.976;8.306;2023-03-01T01:34:51;11.17;;;9.13;;
10315;SDS011;5203;48.976;8.306;2023-03-01T01:37:17;13.37;;;10.47;;
10315;SDS011;5203;48.976;8.306;2023-03-01T01:39:42;12.20;;;9.73;;
10315;SDS011;5203;48.976;8.306;2023-03-01T01:42:12;9.97;;;8.53;;
10315;SDS011;5203;48.976;8.306;2023-03-01T01:44:45;10.70;;;9.43;;
10315;SDS011;5203;48.976;8.306;2023-03-01T01:49:54;11.33;;;9.63;;
10315;SDS011;5203;48.976;8.306;2023-03-01T01:55:05;10.67;;;9.57;;
10315;SDS011;5203;48.976;8.306;2023-03-01T02:00:15;12.77;;;9.97;;
10315;SDS011;5203;48.976;8.306;2023-03-01T02:02:44;11.73;;;10.47;;
10315;SDS011;5203;48.976;8.306;2023-03-01T02:05:15;11.83;;;10.07;;
10315;SDS011;5203;48.976;8.306;2023-03-01T02:07:49;12.27;;;10.53;;
10315;SDS011;5203;48.976;8.306;2023-03-01T02:10:15;11.83;;;10.37;;
10315;SDS011;5203;48.976;8.306;2023-03-01T02:12:41;12.73;;;10.47;;
10315;SDS011;5203;48.976;8.306;2023-03-01T02:15:07;9.77;;;8.77;;
10315;SDS011;5203;48.976;8.306;2023-03-01T02:17:33;11.40;;;9.77;;
10315;SDS011;5203;48.976;8.306;2023-03-01T02:20:07;11.87;;;10.40;;
10315;SDS011;5203;48.976;8.306;2023-03-01T02:22:35;11.27;;;10.07;;
10315;SDS011;5203;48.976;8.306;2023-03-01T02:27:58;11.13;;;10.03;;
10315;SDS011;5203;48.976;8.306;2023-03-01T02:30:33;12.67;;;9.97;;
10315;SDS011;5203;48.976;8.306;2023-03-01T02:33:00;11.70;;;10.07;;
10315;SDS011;5203;48.976;8.306;2023-03-01T02:35:37;11.33;;;10.13;;
10315;SDS011;5203;48.976;8.306;2023-03-01T02:38:03;13.00;;;10.87;;
10315;SDS011;5203;48.976;8.306;2023-03-01T02:40:33;12.67;;;10.87;;
10315;SDS011;5203;48.976;8.306;2023-03-01T02:43:00;11.93;;;10.70;;
10315;SDS011;5203;48.976;8.306;2023-03-01T02:45:29;12.17;;;10.73;;
10315;SDS011;5203;48.976;8.306;2023-03-01T02:47:55;12.47;;;9.60;;
10315;SDS011;5203;48.976;8.306;2023-03-01T02:55:25;11.73;;;10.53;;
10315;SDS011;5203;48.976;8.306;2023-03-01T02:57:50;12.77;;;10.90;;
10315;SDS011;5203;48.976;8.306;2023-03-01T03:00:19;12.67;;;10.37;;
10315;SDS011;5203;48.976;8.306;2023-03-01T03:02:48;13.63;;;10.70;;
10315;SDS011;5203;48.976;8.306;2023-03-01T03:05:16;12.43;;;10.80;;
10315;SDS011;5203;48.976;8.306;2023-03-01T03:07:45;11.57;;;9.93;;
10315;SDS011;5203;48.976;8.306;2023-03-01T03:10:13;12.07;;;10.77;;
10315;SDS011;5203;48.976;8.306;2023-03-01T03:12:47;13.13;;;10.80;;
10315;SDS011;5203;48.976;8.306;2023-03-01T03:15:22;11.77;;;10.57;;
10315;SDS011;5203;48.976;8.306;2023-03-01T03:17:48;12.17;;;10.87;;
10315;SDS011;5203;48.976;8.306;2023-03-01T03:20:16;13.67;;;11.83;;
10315;SDS011;5203;48.976;8.306;2023-03-01T03:22:47;12.03;;;10.47;;
10315;SDS011;5203;48.976;8.306;2023-03-01T03:25:14;13.57;;;11.27;;
10315;SDS011;5203;48.976;8.306;2023-03-01T03:27:42;12.07;;;10.87;;
10315;SDS011;5203;48.976;8.306;2023-03-01T03:30:09;12.70;;;11.37;;
10315;SDS011;5203;48.976;8.306;2023-03-01T03:32:39;13.20;;;10.53;;
10315;SDS011;5203;48.976;8.306;2023-03-01T03:35:06;16.80;;;11.80;;
10315;SDS011;5203;48.976;8.306;2023-03-01T03:37:39;14.63;;;12.27;;
10315;SDS011;5203;48.976;8.306;2023-03-01T03:40:24;11.60;;;10.33;;
10315;SDS011;5203;48.976;8.306;2023-03-01T03:42:54;12.53;;;11.23;;
10315;SDS011;5203;48.976;8.306;2023-03-01T03:45:20;15.47;;;11.20;;
10315;SDS011;5203;48.976;8.306;2023-03-01T03:47:46;14.17;;;12.07;;
10315;SDS011;5203;48.976;8.306;2023-03-01T03:50:12;14.40;;;11.70;;
10315;SDS011;5203;48.976;8.306;2023-03-01T03:52:39;13.00;;;11.03;;
10315;SDS011;5203;48.976;8.306;2023-03-01T03:55:06;16.53;;;12.23;;
10315;SDS011;5203;48.976;8.306;2023-03-01T03:57:34;13.17;;;11.23;;
10315;SDS011;5203;48.976;8.306;2023-03-01T04:00:00;12.37;;;10.57;;
10315;SDS011;5203;48.976;8.306;2023-03-01T04:02:28;14.23;;;11.43;;
10315;SDS011;5203;48.976;8.306;2023-03-01T04:04:54;14.17;;;12.03;;
10315;SDS011;5203;48.976;8.306;2023-03-01T04:07:20;13.77;;;11.77;;
10315;SDS011;5203;48.976;8.306;2023-03-01T04:09:45;12.93;;;11.47;;
10315;SDS011;5203;48.976;8.306;2023-03-01T04:12:11;14.63;;;11.60;;
10315;SDS011;5203;48.976;8.306;2023-03-01T04:14:36;16.00;;;12.77;;
10315;SDS011;5203;48.976;8.306;2023-03-01T04:17:02;12.87;;;11.53;;
10315;SDS011;5203;48.976;8.306;2023-03-01T04:19:30;13.00;;;11.60;;
10315;SDS011;5203;48.976;8.306;2023-03-01T04:22:01;15.90;;;12.63;;
10315;SDS011;5203;48.976;8.306;2023-03-01T04:24:34;12.57;;;11.27;;
10315;SDS011;5203;48.976;8.306;2023-03-01T04:27:00;12.60;;;11.30;;
10315;SDS011;5203;48.976;8.306;2023-03-01T04:29:26;15.80;;;12.80;;
10315;SDS011;5203;48.976;8.306;2023-03-01T04:31:51;15.27;;;12.10;;
10315;SDS011;5203;48.976;8.306;2023-03-01T04:34:17;14.13;;;12.13;;
10315;SDS011;5203;48.976;8.306;2023-03-01T04:36:43;16.13;;;12.37;;
10315;SDS011;5203;48.976;8.306;2023-03-01T04:39:09;16.67;;;13.60;;
10315;SDS011;5203;48.976;8.306;2023-03-01T04:41:38;17.53;;;14.37;;
10315;SDS011;5203;48.976;8.306;2023-03-01T04:44:04;18.07;;;13.47;;
10315;SDS011;5203;48.976;8.306;2023-03-01T04:46:30;19.00;;;15.33;;
10315;SDS011;5203;48.976;8.306;2023-03-01T04:48:55;18.27;;;13.50;;
10315;SDS011;5203;48.976;8.306;2023-03-01T04:51:21;15.70;;;13.03;;
10315;SDS011;5203;48.976;8.306;2023-03-01T04:53:47;19.63;;;14.57;;
10315;SDS011;5203;48.976;8.306;2023-03-01T04:56:13;16.07;;;13.47;;
10315;SDS011;5203;48.976;8.306;2023-03-01T04:58:39;18.50;;;13.70;;
10315;SDS011;5203;48.976;8.306;2023-03-01T05:01:09;16.97;;;14.90;;
10315;SDS011;5203;48.976;8.306;2023-03-01T05:03:44;29.43;;;24.13;;
10315;SDS011;5203;48.976;8.306;2023-03-01T05:06:12;23.93;;;18.33;;
10315;SDS011;5203;48.976;8.306;2023-03-01T05:08:38;19.37;;;14.83;;
10315;SDS011;5203;48.976;8.306;2023-03-01T05:11:05;18.77;;;14.90;;
10315;SDS011;5203;48.976;8.306;2023-03-01T05:13:33;16.63;;;13.50;;
10315;SDS011;5203;48.976;8.306;2023-03-01T05:16:00;16.80;;;13.67;;
10315;SDS011;5203;48.976;8.306;2023-03-01T05:18:27;17.10;;;14.63;;
10315;SDS011;5203;48.976;8.306;2023-03-01T05:21:01;18.93;;;14.23;;
10315;SDS011;5203;48.976;8.306;2023-03-01T05:23:31;16.17;;;13.80;;
10315;SDS011;5203;48.976;8.306;2023-03-01T05:25:57;17.50;;;13.87;;
10315;SDS011;5203;48.976;8.306;2023-03-01T05:28:24;18.50;;;14.13;;
10315;SDS011;5203;48.976;8.306;2023-03-01T05:30:51;16.87;;;13.33;;
10315;SDS011;5203;48.976;8.306;2023-03-01T05:33:16;15.10;;;13.50;;
10315;SDS011;5203;48.976;8.306;2023-03-01T05:35:43;17.90;;;14.73;;
10315;SDS011;5203;48.976;8.306;2023-03-01T05:38:10;16.03;;;14.33;;
10315;SDS011;5203;48.976;8.306;2023-03-01T05:40:40;17.37;;;14.43;;
10315;SDS011;5203;48.976;8.306;2023-03-01T05:43:06;17.53;;;14.23;;
10315;SDS011;5203;48.976;8.306;2023-03-01T05:45:33;15.10;;;13.50;;
10315;SDS011;5203;48.976;8.306;2023-03-01T05:48:01;20.07;;;15.63;;
10315;SDS011;5203;48.976;8.306;2023-03-01T05:50:28;19.73;;;14.07;;
10315;SDS011;5203;48.976;8.306;2023-03-01T05:52:58;17.67;;;14.53;;
10315;SDS011;5203;48.976;8.306;2023-03-01T05:55:26;16.20;;;13.30;;
10315;SDS011;5203;48.976;8.306;2023-03-01T05:57:52;23.23;;;17.63;;
10315;SDS011;5203;48.976;8.306;2023-03-01T06:00:19;27.17;;;20.60;;
10315;SDS011;5203;48.976;8.306;2023-03-01T06:02:47;18.90;;;16.07;;
10315;SDS011;5203;48.976;8.306;2023-03-01T06:05:14;20.63;;;14.37;;
10315;SDS011;5203;48.976;8.306;2023-03-01T06:07:40;15.73;;;13.50;;
10315;SDS011;5203;48.976;8.306;2023-03-01T06:10:07;16.00;;;13.20;;
10315;SDS011;5203;48.976;8.306;2023-03-01T06:12:34;16.17;;;13.60;;
10315;SDS011;5203;48.976;8.306;2023-03-01T06:15:01;17.87;;;14.67;;
10315;SDS011;5203;48.976;8.306;2023-03-01T06:17:31;20.70;;;16.67;;
10315;SDS011;5203;48.976;8.306;2023-03-01T06:20:00;30.30;;;22.33;;
10315;SDS011;5203;48.976;8.306;2023-03-01T06:22:26;18.43;;;15.20;;
10315;SDS011;5203;48.976;8.306;2023-03-01T06:24:52;27.53;;;23.70;;
10315;SDS011;5203;48.976;8.306;2023-03-01T06:27:17;24.00;;;19.50;;
10315;SDS011;5203;48.976;8.306;2023-03-01T06:29:43;19.50;;;15.77;;
10315;SDS011;5203;48.976;8.306;2023-03-01T06:32:09;21.07;;;14.67;;
10315;SDS011;5203;48.976;8.306;2023-03-01T06:34:35;21.03;;;18.67;;
10315;SDS011;5203;48.976;8.306;2023-03-01T06:37:00;19.97;;;16.97;;
10315;SDS011;5203;48.976;8.306;2023-03-01T06:39:30;19.03;;;17.07;;
10315;SDS011;5203;48.976;8.306;2023-03-01T06:41:56;19.27;;;16.43;;
10315;SDS011;5203;48.976;8.306;2023-03-01T06:44:23;18.23;;;15.33;;
10315;SDS011;5203;48.976;8.306;2023-03-01T06:46:48;19.07;;;14.97;;
10315;SDS011;5203;48.976;8.306;2023-03-01T06:49:14;20.23;;;16.07;;
10315;SDS011;5203;48.976;8.306;2023-03-01T06:51:41;18.20;;;15.63;;
10315;SDS011;5203;48.976;8.306;2023-03-01T06:54:07;20.03;;;15.23;;
10315;SDS011;5203;48.976;8.306;2023-03-01T06:56:32;22.17;;;15.73;;
10315;SDS011;5203;48.976;8.306;2023-03-01T06:58:58;18.53;;;15.30;;
10315;SDS011;5203;48.976;8.306;2023-03-01T07:01:24;18.43;;;14.63;;
10315;SDS011;5203;48.976;8.306;2023-03-01T07:03:53;22.83;;;16.30;;
10315;SDS011;5203;48.976;8.306;2023-03-01T07:06:22;18.10;;;15.53;;
10315;SDS011;5203;48.976;8.306;2023-03-01T07:08:48;18.23;;;15.30;;
10315;SDS011;5203;48.976;8.306;2023-03-01T07:11:13;18.83;;;14.37;;
10315;SDS011;5203;48.976;8.306;2023-03-01T07:13:40;21.53;;;16.47;;
10315;SDS011;5203;48.976;8.306;2023-03-01T07:16:05;20.17;;;14.77;;
10315;SDS011;5203;48.976;8.306;2023-03-01T07:18:32;20.00;;;16.20;;
10315;SDS011;5203;48.976;8.306;2023-03-01T07:20:57;20.57;;;15.60;;
10315;SDS011;5203;48.976;8.306;2023-03-01T07:23:23;18.27;;;14.07;;
10315;SDS011;5203;48.976;8.306;2023-03-01T07:25:52;21.43;;;16.53;;
10315;SDS011;5203;48.976;8.306;2023-03-01T07:28:19;20.60;;;16.00;;
10315;SDS011;5203;48.976;8.306;2023-03-01T07:30:45;20.33;;;16.27;;
10315;SDS011;5203;48.976;8.306;2023-03-01T07:33:11;18.60;;;15.97;;
10315;SDS011;5203;48.976;8.306;2023-03-01T07:35:36;23.50;;;15.80;;
10315;SDS011;5203;48.976;8.306;2023-03-01T07:38:02;18.43;;;16.07;;
10315;SDS011;5203;48.976;8.306;2023-03-01T07:40:27;21.40;;;15.67;;
10315;SDS011;5203;48.976;8.306;2023-03-01T07:42:57;19.70;;;15.30;;
10315;SDS011;5203;48.976;8.306;2023-03-01T07:45:23;21.47;;;15.30;;
10315;SDS011;5203;48.976;8.306;2023-03-01T07:47:52;18.23;;;15.77;;
10315;SDS011;5203;48.976;8.306;2023-03-01T07:50:18;20.70;;;16.13;;
10315;SDS011;5203;48.976;8.306;2023-03-01T07:52:45;19.40;;;15.63;;
10315;SDS011;5203;48.976;8.306;2023-03-01T07:55:11;21.83;;;16.10;;
10315;SDS011;5203;48.976;8.306;2023-03-01T07:57:37;19.53;;;15.80;;
10315;SDS011;5203;48.976;8.306;2023-03-01T08:00:04;19.90;;;14.87;;
10315;SDS011;5203;48.976;8.306;2023-03-01T08:02:30;18.83;;;16.27;;
10315;SDS011;5203;48.976;8.306;2023-03-01T08:04:56;19.93;;;15.97;;
10315;SDS011;5203;48.976;8.306;2023-03-01T08:07:22;19.67;;;14.63;;
10315;SDS011;5203;48.976;8.306;2023-03-01T08:09:47;17.60;;;14.83;;
10315;SDS011;5203;48.976;8.306;2023-03-01T08:12:13;17.77;;;15.87;;
10315;SDS011;5203;48.976;8.306;2023-03-01T08:14:41;18.73;;;15.07;;
10315;SDS011;5203;48.976;8.306;2023-03-01T08:17:06;18.23;;;14.20;;
10315;SDS011;5203;48.976;8.306;2023-03-01T08:19:32;21.73;;;17.20;;
10315;SDS011;5203;48.976;8.306;2023-03-01T08:21:59;17.77;;;14.87;;
10315;SDS011;5203;48.976;8.306;2023-03-01T08:24:28;20.50;;;15.47;;
10315;SDS011;5203;48.976;8.306;2023-03-01T08:26:54;18.57;;;14.57;;
10315;SDS011;5203;48.976;8.306;2023-03-01T08:29:20;19.50;;;16.10;;
10315;SDS011;5203;48.976;8.306;2023-03-01T08:31:47;18.80;;;14.87;;
10315;SDS011;5203;48.976;8.306;2023-03-01T08:34:14;19.30;;;15.83;;
10315;SDS011;5203;48.976;8.306;2023-03-01T08:36:42;21.13;;;16.30;;
10315;SDS011;5203;48.976;8.306;2023-03-01T08:39:11;22.07;;;16.77;;
10315;SDS011;5203;48.976;8.306;2023-03-01T08:41:38;22.20;;;16.90;;
10315;SDS011;5203;48.976;8.306;2023-03-01T08:44:04;18.43;;;16.17;;
10315;SDS011;5203;48.976;8.306;2023-03-01T08:46:31;20.40;;;15.40;;
10315;SDS011;5203;48.976;8.306;2023-03-01T08:49:02;20.20;;;16.03;;
10315;SDS011;5203;48.976;8.306;2023-03-01T08:51:32;31.23;;;16.07;;
10315;SDS011;5203;48.976;8.306;2023-03-01T08:54:02;19.17;;;16.00;;
10315;SDS011;5203;48.976;8.306;2023-03-01T08:56:31;21.83;;;16.43;;
10315;SDS011;5203;48.976;8.306;2023-03-01T08:58:57;21.87;;;14.50;;
10315;SDS011;5203;48.976;8.306;2023-03-01T09:01:23;19.53;;;15.63;;
10315;SDS011;5203;48.976;8.306;2023-03-01T09:03:49;18.57;;;15.57;;
10315;SDS011;5203;48.976;8.306;2023-03-01T09:06:14;17.70;;;14.67;;
10315;SDS011;5203;48.976;8.306;2023-03-01T09:08:41;19.50;;;15.33;;
10315;SDS011;5203;48.976;8.306;2023-03-01T09:11:10;18.53;;;15.70;;
10315;SDS011;5203;48.976;8.306;2023-03-01T09:13:37;20.97;;;16.93;;
10315;SDS011;5203;48.976;8.306;2023-03-01T09:16:04;20.83;;;16.87;;
10315;SDS011;5203;48.976;8.306;2023-03-01T09:18:31;25.10;;;16.50;;
10315;SDS011;5203;48.976;8.306;2023-03-01T09:21:01;19.57;;;16.13;;
10315;SDS011;5203;48.976;8.306;2023-03-01T09:23:36;19.30;;;15.90;;
10315;SDS011;5203;48.976;8.306;2023-03-01T09:26:25;20.03;;;16.30;;
10315;SDS011;5203;48.976;8.306;2023-03-01T09:28:52;21.27;;;17.03;;
10315;SDS011;5203;48.976;8.306;2023-03-01T09:31:20;20.33;;;16.50;;
10315;SDS011;5203;48.976;8.306;2023-03-01T09:33:47;18.53;;;15.60;;
10315;SDS011;5203;48.976;8.306;2023-03-01T09:36:15;17.47;;;14.70;;
10315;SDS011;5203;48.976;8.306;2023-03-01T09:38:42;21.67;;;16.50;;
10315;SDS011;5203;48.976;8.306;2023-03-01T09:41:09;20.77;;;16.03;;
10315;SDS011;5203;48.976;8.306;2023-03-01T09:43:50;20.30;;;16.73;;
10315;SDS011;5203;48.976;8.306;2023-03-01T09:46:19;20.50;;;17.07;;
10315;SDS011;5203;48.976;8.306;2023-03-01T09:49:01;19.77;;;16.87;;
10315;SDS011;5203;48.976;8.306;2023-03-01T09:51:35;20.23;;;17.63;;
10315;SDS011;5203;48.976;8.306;2023-03-01T09:54:04;21.50;;;16.13;;
10315;SDS011;5203;48.976;8.306;2023-03-01T09:59:25;21.70;;;17.40;;
10315;SDS011;5203;48.976;8.306;2023-03-01T10:10:38;21.97;;;16.17;;
10315;SDS011;5203;48.976;8.306;2023-03-01T10:16:22;21.37;;;16.23;;
10315;SDS011;5203;48.976;8.306;2023-03-01T10:18:58;18.50;;;16.50;;
10315;SDS011;5203;48.976;8.306;2023-03-01T10:21:27;22.57;;;17.33;;
10315;SDS011;5203;48.976;8.306;2023-03-01T10:23:57;23.40;;;17.27;;
10315;SDS011;5203;48.976;8.306;2023-03-01T10:26:39;19.10;;;16.50;;
10315;SDS011;5203;48.976;8.306;2023-03-01T10:29:12;23.00;;;17.07;;
10315;SDS011;5203;48.976;8.306;2023-03-01T10:31:46;19.10;;;16.27;;
10315;SDS011;5203;48.976;8.306;2023-03-01T10:34:17;21.03;;;17.63;;
10315;SDS011;5203;48.976;8.306;2023-03-01T10:36:45;22.63;;;16.90;;
10315;SDS011;5203;48.976;8.306;2023-03-01T10:39:15;22.10;;;17.70;;
10315;SDS011;5203;48.976;8.306;2023-03-01T10:44:44;20.83;;;17.03;;
10315;SDS011;5203;48.976;8.306;2023-03-01T10:47:17;20.53;;;17.07;;
10315;SDS011;5203;48.976;8.306;2023-03-01T10:52:23;20.50;;;18.40;;
10315;SDS011;5203;48.976;8.306;2023-03-01T10:54:52;20.13;;;17.00;;
10315;SDS011;5203;48.976;8.306;2023-03-01T10:57:47;18.93;;;16.60;;
10315;SDS011;5203;48.976;8.306;2023-03-01T11:00:21;19.27;;;17.10;;
10315;SDS011;5203;48.976;8.306;2023-03-01T11:03:31;19.83;;;16.93;;
10315;SDS011;5203;48.976;8.306;2023-03-01T11:06:24;22.83;;;17.53;;
10315;SDS011;5203;48.976;8.306;2023-03-01T11:08:35;19.53;;;17.53;;
10315;SDS011;5203;48.976;8.306;2023-03-01T11:11:04;19.90;;;17.57;;
10315;SDS011;5203;48.976;8.306;2023-03-01T11:13:36;21.47;;;16.97;;
10315;SDS011;5203;48.976;8.306;2023-03-01T11:16:16;19.77;;;17.67;;
10315;SDS011;5203;48.976;8.306;2023-03-01T11:18:59;19.10;;;16.80;;
10315;SDS011;5203;48.976;8.306;2023-03-01T11:21:29;20.60;;;16.80;;
10315;SDS011;5203;48.976;8.306;2023-03-01T11:23:59;19.77;;;17.77;;
10315;SDS011;5203;48.976;8.306;2023-03-01T11:26:26;19.63;;;17.63;;
10315;SDS011;5203;48.976;8.306;2023-03-01T11:28:54;20.27;;;18.27;;
10315;SDS011;5203;48.976;8.306;2023-03-01T11:31:23;19.63;;;17.63;;
10315;SDS011;5203;48.976;8.306;2023-03-01T11:33:55;21.30;;;18.27;;
10315;SDS011;5203;48.976;8.306;2023-03-01T11:36:32;20.23;;;17.53;;
10315;SDS011;5203;48.976;8.306;2023-03-01T11:39:05;20.47;;;17.87;;
10315;SDS011;5203;48.976;8.306;2023-03-01T11:41:59;20.07;;;18.07;;
10315;SDS011;5203;48.976;8.306;2023-03-01T11:44:32;24.70;;;22.10;;
10315;SDS011;5203;48.976;8.306;2023-03-01T11:55:26;20.73;;;18.53;;
10315;SDS011;5203;48.976;8.306;2023-03-01T11:58:01;21.73;;;19.53;;
10315;SDS011;5203;48.976;8.306;2023-03-01T12:11:03;21.87;;;19.57;;
10315;SDS011;5203;48.976;8.306;2023-03-01T12:14:00;22.20;;;19.87;;
10315;SDS011;5203;48.976;8.306;2023-03-01T12:25:03;20.47;;;18.37;;
10315;SDS011;5203;48.976;8.306;2023-03-01T12:31:16;20.40;;;18.17;;
10315;SDS011;5203;48.976;8.306;2023-03-01T12:36:47;20.87;;;18.70;;
10315;SDS011;5203;48.976;8.306;2023-03-01T12:45:44;20.27;;;18.13;;
10315;SDS011;5203;48.976;8.306;2023-03-01T12:48:36;19.03;;;17.23;;
10315;SDS011;5203;48.976;8.306;2023-03-01T12:51:28;21.43;;;19.33;;
10315;SDS011;5203;48.976;8.306;2023-03-01T12:53:57;20.60;;;18.50;;
10315;SDS011;5203;48.976;8.306;2023-03-01T12:56:28;20.30;;;18.10;;
10315;SDS011;5203;48.976;8.306;2023-03-01T13:01:41;21.33;;;19.13;;
10315;SDS011;5203;48.976;8.306;2023-03-01T13:17:48;19.57;;;17.67;;
10315;SDS011;5203;48.976;8.306;2023-03-01T13:20:19;20.10;;;18.00;;
10315;SDS011;5203;48.976;8.306;2023-03-01T13:22:48;20.53;;;18.50;;
10315;SDS011;5203;48.976;8.306;2023-03-01T13:31:55;18.70;;;16.80;;
10315;SDS011;5203;48.976;8.306;2023-03-01T13:33:59;19.40;;;17.50;;
10315;SDS011;5203;48.976;8.306;2023-03-01T13:46:48;19.87;;;17.97;;
10315;SDS011;5203;48.976;8.306;2023-03-01T13:49:16;19.33;;;16.67;;
10315;SDS011;5203;48.976;8.306;2023-03-01T13:51:48;19.93;;;18.03;;
10315;SDS011;5203;48.976;8.306;2023-03-01T13:54:15;20.73;;;18.60;;
10315;SDS011;5203;48.976;8.306;2023-03-01T13:56:47;19.77;;;17.87;;
10315;SDS011;5203;48.976;8.306;2023-03-01T13:59:19;19.10;;;17.30;;
10315;SDS011;5203;48.976;8.306;2023-03-01T14:01:56;20.80;;;18.90;;
10315;SDS011;5203;48.976;8.306;2023-03-01T14:04:28;19.97;;;18.07;;
10315;SDS011;5203;48.976;8.306;2023-03-01T14:09:47;20.30;;;18.23;;
10315;SDS011;5203;48.976;8.306;2023-03-01T14:17:41;20.80;;;18.83;;
10315;SDS011;5203;48.976;8.306;2023-03-01T14:20:22;20.30;;;18.27;;
10315;SDS011;5203;48.976;8.306;2023-03-01T14:22:52;19.53;;;17.67;;
10315;SDS011;5203;48.976;8.306;2023-03-01T14:27:59;19.93;;;18.03;;
10315;SDS011;5203;48.976;8.306;2023-03-01T14:30:45;18.60;;;16.80;;
10315;SDS011;5203;48.976;8.306;2023-03-01T14:33:21;18.93;;;16.60;;
10315;SDS011;5203;48.976;8.306;2023-03-01T14:38:34;21.50;;;17.33;;
10315;SDS011;5203;48.976;8.306;2023-03-01T14:41:15;18.10;;;16.37;;
10315;SDS011;5203;48.976;8.306;2023-03-01T14:43:47;19.57;;;17.77;;
10315;SDS011;5203;48.976;8.306;2023-03-01T14:46:28;19.87;;;18.03;;
10315;SDS011;5203;48.976;8.306;2023-03-01T14:49:05;18.03;;;16.33;;
10315;SDS011;5203;48.976;8.306;2023-03-01T14:51:40;20.10;;;18.17;;
10315;SDS011;5203;48.976;8.306;2023-03-01T14:56:50;18.97;;;17.17;;
10315;SDS011;5203;48.976;8.306;2023-03-01T14:59:21;19.37;;;17.53;;
10315;SDS011;5203;48.976;8.306;2023-03-01T15:01:49;19.20;;;17.40;;
10315;SDS011;5203;48.976;8.306;2023-03-01T15:04:20;19.63;;;17.63;;
10315;SDS011;5203;48.976;8.306;2023-03-01T15:06:47;19.97;;;18.07;;
10315;SDS011;5203;48.976;8.306;2023-03-01T15:09:16;22.13;;;18.73;;
10315;SDS011;5203;48.976;8.306;2023-03-01T15:11:43;19.03;;;17.20;;
10315;SDS011;5203;48.976;8.306;2023-03-01T15:14:25;19.37;;;17.47;;
10315;SDS011;5203;48.976;8.306;2023-03-01T15:17:13;20.00;;;18.00;;
10315;SDS011;5203;48.976;8.306;2023-03-01T15:19:59;19.17;;;17.27;;
10315;SDS011;5203;48.976;8.306;2023-03-01T15:22:28;18.47;;;16.67;;
10315;SDS011;5203;48.976;8.306;2023-03-01T15:24:53;18.23;;;16.43;;
10315;SDS011;5203;48.976;8.306;2023-03-01T15:27:20;19.80;;;17.70;;
10315;SDS011;5203;48.976;8.306;2023-03-01T15:29:49;20.20;;;18.30;;
10315;SDS011;5203;48.976;8.306;2023-03-01T15:32:33;19.90;;;18.00;;
10315;SDS011;5203;48.976;8.306;2023-03-01T15:40:50;19.37;;;17.60;;
10315;SDS011;5203;48.976;8.306;2023-03-01T15:46:02;19.83;;;18.13;;
10315;SDS011;5203;48.976;8.306;2023-03-01T15:48:29;19.53;;;17.50;;
10315;SDS011;5203;48.976;8.306;2023-03-01T15:50:56;19.17;;;17.40;;
10315;SDS011;5203;48.976;8.306;2023-03-01T15:53:24;19.10;;;17.20;;
10315;SDS011;5203;48.976;8.306;2023-03-01T15:55:52;19.67;;;17.67;;
10315;SDS011;5203;48.976;8.306;2023-03-01T15:58:21;19.37;;;17.33;;
10315;SDS011;5203;48.976;8.306;2023-03-01T16:00:49;26.97;;;17.40;;
10315;SDS011;5203;48.976;8.306;2023-03-01T16:03:21;19.23;;;17.33;;
10315;SDS011;5203;48.976;8.306;2023-03-01T16:05:48;20.03;;;18.03;;
10315;SDS011;5203;48.976;8.306;2023-03-01T16:08:15;18.67;;;16.77;;
10315;SDS011;5203;48.976;8.306;2023-03-01T16:10:41;17.50;;;15.63;;
10315;SDS011;5203;48.976;8.306;2023-03-01T16:13:11;18.80;;;16.87;;
10315;SDS011;5203;48.976;8.306;2023-03-01T16:15:38;19.10;;;17.23;;
10315;SDS011;5203;48.976;8.306;2023-03-01T16:18:05;18.53;;;16.53;;
10315;SDS011;5203;48.976;8.306;2023-03-01T16:20:32;18.27;;;16.33;;
10315;SDS011;5203;48.976;8.306;2023-03-01T16:22:59;18.43;;;16.73;;
10315;SDS011;5203;48.976;8.306;2023-03-01T16:25:30;16.83;;;15.17;;
10315;SDS011;5203;48.976;8.306;2023-03-01T16:27:57;17.10;;;15.33;;
10315;SDS011;5203;48.976;8.306;2023-03-01T16:30:25;18.23;;;16.43;;
10315;SDS011;5203;48.976;8.306;2023-03-01T16:32:51;17.83;;;16.13;;
10315;SDS011;5203;48.976;8.306;2023-03-01T16:35:18;17.87;;;15.97;;
10315;SDS011;5203;48.976;8.306;2023-03-01T16:37:45;18.80;;;16.20;;
10315;SDS011;5203;48.976;8.306;2023-03-01T16:42:48;17.43;;;15.77;;
10315;SDS011;5203;48.976;8.306;2023-03-01T16:45:15;18.83;;;16.93;;
10315;SDS011;5203;48.976;8.306;2023-03-01T16:47:40;19.17;;;17.17;;
10315;SDS011;5203;48.976;8.306;2023-03-01T16:50:06;19.47;;;17.53;;
10315;SDS011;5203;48.976;8.306;2023-03-01T16:52:33;19.53;;;17.53;;
10315;SDS011;5203;48.976;8.306;2023-03-01T16:54:59;18.33;;;16.53;;
10315;SDS011;5203;48.976;8.306;2023-03-01T16:57:24;19.77;;;17.67;;
10315;SDS011;5203;48.976;8.306;2023-03-01T16:59:53;18.60;;;16.67;;
10315;SDS011;5203;48.976;8.306;2023-03-01T17:02:19;18.13;;;16.27;;
10315;SDS011;5203;48.976;8.306;2023-03-01T17:04:45;19.17;;;17.17;;